sensor_id;sensor_type;location;lat;lon;timestamp;P1;durP1;ratioP1;P2;durP2;ratioP2
68989;SDS011;56046;47.270;11.368;2023-03-23T00:01:01;6.78;;;2.60;;
68989;SDS011;56046;47.270;11.368;2023-03-23T00:03:26;6.35;;;2.40;;
68989;SDS011;56046;47.270;11.368;2023-03-23T00:05:53;4.37;;;2.07;;
68989;SDS011;56046;47.270;11.368;2023-03-23T00:08:24;7.45;;;2.58;;
68989;SDS011;56046;47.270;11.368;2023-03-23T00:10:51;4.53;;;2.28;;
68989;SDS011;56046;47.270;11.368;2023-03-23T00:13:18;3.92;;;2.00;;
68989;SDS011;56046;47.270;11.368;2023-03-23T00:15:44;4.57;;;2.13;;
68989;SDS011;56046;47.270;11.368;2023-03-23T00:18:10;5.60;;;2.60;;
68989;SDS011;56046;47.270;11.368;2023-03-23T00:20:46;4.93;;;2.60;;
68989;SDS011;56046;47.270;11.368;2023-03-23T00:23:14;5.60;;;2.40;;
68989;SDS011;56046;47.270;11.368;2023-03-23T00:25:44;4.95;;;2.47;;
68989;SDS011;56046;47.270;11.368;2023-03-23T00:28:10;5.70;;;2.85;;
68989;SDS011;56046;47.270;11.368;2023-03-23T00:30:37;5.00;;;2.35;;
68989;SDS011;56046;47.270;11.368;2023-03-23T00:33:03;5.57;;;2.70;;
68989;SDS011;56046;47.270;11.368;2023-03-23T00:35:29;5.33;;;2.50;;
68989;SDS011;56046;47.270;11.368;2023-03-23T00:37:55;7.72;;;2.83;;
68989;SDS011;56046;47.270;11.368;2023-03-23T00:40:21;5.30;;;2.40;;
68989;SDS011;56046;47.270;11.368;2023-03-23T00:42:46;6.20;;;2.53;;
68989;SDS011;56046;47.270;11.368;2023-03-23T00:45:13;5.60;;;2.40;;
68989;SDS011;56046;47.270;11.368;2023-03-23T00:47:40;5.38;;;2.60;;
68989;SDS011;56046;47.270;11.368;2023-03-23T00:50:07;4.88;;;2.33;;
68989;SDS011;56046;47.270;11.368;2023-03-23T00:52:32;6.38;;;2.50;;
68989;SDS011;56046;47.270;11.368;2023-03-23T00:54:58;6.20;;;2.37;;
68989;SDS011;56046;47.270;11.368;2023-03-23T00:57:23;5.30;;;2.83;;
68989;SDS011;56046;47.270;11.368;2023-03-23T00:59:52;5.55;;;2.28;;
68989;SDS011;56046;47.270;11.368;2023-03-23T01:02:17;5.35;;;2.35;;
68989;SDS011;56046;47.270;11.368;2023-03-23T01:04:43;7.00;;;2.50;;
68989;SDS011;56046;47.270;11.368;2023-03-23T01:07:09;5.57;;;2.83;;
68989;SDS011;56046;47.270;11.368;2023-03-23T01:09:37;6.28;;;2.83;;
68989;SDS011;56046;47.270;11.368;2023-03-23T01:12:05;5.20;;;2.78;;
68989;SDS011;56046;47.270;11.368;2023-03-23T01:14:30;4.73;;;2.43;;
68989;SDS011;56046;47.270;11.368;2023-03-23T01:16:56;6.33;;;2.67;;
68989;SDS011;56046;47.270;11.368;2023-03-23T01:19:21;7.87;;;2.33;;
68989;SDS011;56046;47.270;11.368;2023-03-23T01:21:47;4.57;;;2.37;;
68989;SDS011;56046;47.270;11.368;2023-03-23T01:24:12;6.80;;;2.47;;
68989;SDS011;56046;47.270;11.368;2023-03-23T01:26:37;4.97;;;2.27;;
68989;SDS011;56046;47.270;11.368;2023-03-23T01:29:02;4.47;;;2.27;;
68989;SDS011;56046;47.270;11.368;2023-03-23T01:31:28;5.77;;;2.57;;
68989;SDS011;56046;47.270;11.368;2023-03-23T01:33:53;5.13;;;2.40;;
68989;SDS011;56046;47.270;11.368;2023-03-23T01:36:24;5.15;;;2.42;;
68989;SDS011;56046;47.270;11.368;2023-03-23T01:38:51;5.43;;;2.43;;
68989;SDS011;56046;47.270;11.368;2023-03-23T01:41:17;5.10;;;2.42;;
68989;SDS011;56046;47.270;11.368;2023-03-23T01:46:27;4.63;;;2.23;;
68989;SDS011;56046;47.270;11.368;2023-03-23T01:48:52;5.88;;;3.17;;
68989;SDS011;56046;47.270;11.368;2023-03-23T01:51:18;4.65;;;2.42;;
68989;SDS011;56046;47.270;11.368;2023-03-23T01:53:46;5.55;;;2.70;;
68989;SDS011;56046;47.270;11.368;2023-03-23T01:56:11;5.75;;;2.60;;
68989;SDS011;56046;47.270;11.368;2023-03-23T01:58:39;7.20;;;2.63;;
68989;SDS011;56046;47.270;11.368;2023-03-23T02:01:05;5.30;;;2.80;;
68989;SDS011;56046;47.270;11.368;2023-03-23T02:03:32;5.43;;;2.38;;
68989;SDS011;56046;47.270;11.368;2023-03-23T02:05:59;5.28;;;2.60;;
68989;SDS011;56046;47.270;11.368;2023-03-23T02:08:26;4.33;;;2.30;;
68989;SDS011;56046;47.270;11.368;2023-03-23T02:10:53;7.03;;;2.67;;
68989;SDS011;56046;47.270;11.368;2023-03-23T02:13:18;4.83;;;2.33;;
68989;SDS011;56046;47.270;11.368;2023-03-23T02:15:48;5.13;;;2.60;;
68989;SDS011;56046;47.270;11.368;2023-03-23T02:19:03;5.65;;;2.10;;
68989;SDS011;56046;47.270;11.368;2023-03-23T02:21:25;9.23;;;2.78;;
68989;SDS011;56046;47.270;11.368;2023-03-23T02:29:03;4.60;;;2.25;;
68989;SDS011;56046;47.270;11.368;2023-03-23T02:36:36;4.47;;;2.45;;
68989;SDS011;56046;47.270;11.368;2023-03-23T02:41:31;5.43;;;2.53;;
68989;SDS011;56046;47.270;11.368;2023-03-23T02:43:59;5.68;;;2.50;;
68989;SDS011;56046;47.270;11.368;2023-03-23T02:46:26;6.95;;;2.63;;
68989;SDS011;56046;47.270;11.368;2023-03-23T02:48:53;5.20;;;2.30;;
68989;SDS011;56046;47.270;11.368;2023-03-23T02:51:21;5.10;;;2.13;;
68989;SDS011;56046;47.270;11.368;2023-03-23T02:53:47;4.28;;;2.08;;
68989;SDS011;56046;47.270;11.368;2023-03-23T02:56:14;4.95;;;2.05;;
68989;SDS011;56046;47.270;11.368;2023-03-23T02:58:40;5.80;;;2.40;;
68989;SDS011;56046;47.270;11.368;2023-03-23T03:04:07;5.10;;;2.40;;
68989;SDS011;56046;47.270;11.368;2023-03-23T03:09:48;7.40;;;2.67;;
68989;SDS011;56046;47.270;11.368;2023-03-23T03:12:07;4.53;;;2.30;;
68989;SDS011;56046;47.270;11.368;2023-03-23T03:14:45;5.18;;;2.70;;
68989;SDS011;56046;47.270;11.368;2023-03-23T03:17:25;7.28;;;2.40;;
68989;SDS011;56046;47.270;11.368;2023-03-23T03:19:52;4.77;;;2.50;;
68989;SDS011;56046;47.270;11.368;2023-03-23T03:22:20;5.20;;;2.10;;
68989;SDS011;56046;47.270;11.368;2023-03-23T03:24:46;4.43;;;2.10;;
68989;SDS011;56046;47.270;11.368;2023-03-23T03:27:13;5.45;;;2.00;;
68989;SDS011;56046;47.270;11.368;2023-03-23T03:29:40;3.80;;;1.83;;
68989;SDS011;56046;47.270;11.368;2023-03-23T03:32:10;7.10;;;2.30;;
68989;SDS011;56046;47.270;11.368;2023-03-23T03:34:36;7.05;;;2.10;;
68989;SDS011;56046;47.270;11.368;2023-03-23T03:37:02;5.03;;;2.13;;
68989;SDS011;56046;47.270;11.368;2023-03-23T03:39:30;5.63;;;2.20;;
68989;SDS011;56046;47.270;11.368;2023-03-23T03:41:55;4.60;;;2.33;;
68989;SDS011;56046;47.270;11.368;2023-03-23T03:44:20;5.23;;;2.40;;
68989;SDS011;56046;47.270;11.368;2023-03-23T03:46:46;5.15;;;2.10;;
68989;SDS011;56046;47.270;11.368;2023-03-23T03:49:11;5.67;;;2.10;;
68989;SDS011;56046;47.270;11.368;2023-03-23T03:51:37;5.63;;;2.47;;
68989;SDS011;56046;47.270;11.368;2023-03-23T03:54:03;4.90;;;2.15;;
68989;SDS011;56046;47.270;11.368;2023-03-23T03:56:28;4.40;;;2.37;;
68989;SDS011;56046;47.270;11.368;2023-03-23T03:58:53;4.33;;;2.33;;
68989;SDS011;56046;47.270;11.368;2023-03-23T04:01:20;5.40;;;2.17;;
68989;SDS011;56046;47.270;11.368;2023-03-23T04:03:49;4.20;;;2.20;;
68989;SDS011;56046;47.270;11.368;2023-03-23T04:06:15;4.90;;;2.10;;
68989;SDS011;56046;47.270;11.368;2023-03-23T04:08:41;4.43;;;1.93;;
68989;SDS011;56046;47.270;11.368;2023-03-23T04:11:08;4.90;;;2.00;;
68989;SDS011;56046;47.270;11.368;2023-03-23T04:13:34;8.02;;;3.15;;
68989;SDS011;56046;47.270;11.368;2023-03-23T04:15:59;5.30;;;2.40;;
68989;SDS011;56046;47.270;11.368;2023-03-23T04:18:25;5.65;;;2.45;;
68989;SDS011;56046;47.270;11.368;2023-03-23T04:20:50;5.03;;;2.17;;
68989;SDS011;56046;47.270;11.368;2023-03-23T04:23:17;4.93;;;2.50;;
68989;SDS011;56046;47.270;11.368;2023-03-23T04:25:46;5.55;;;2.63;;
68989;SDS011;56046;47.270;11.368;2023-03-23T04:28:13;4.88;;;2.13;;
68989;SDS011;56046;47.270;11.368;2023-03-23T04:30:38;7.57;;;2.70;;
68989;SDS011;56046;47.270;11.368;2023-03-23T04:33:03;4.47;;;2.13;;
68989;SDS011;56046;47.270;11.368;2023-03-23T04:35:29;6.40;;;2.40;;
68989;SDS011;56046;47.270;11.368;2023-03-23T04:37:54;5.13;;;1.97;;
68989;SDS011;56046;47.270;11.368;2023-03-23T04:40:20;6.30;;;2.03;;
68989;SDS011;56046;47.270;11.368;2023-03-23T04:42:45;4.72;;;2.10;;
68989;SDS011;56046;47.270;11.368;2023-03-23T04:45:16;5.35;;;2.15;;
68989;SDS011;56046;47.270;11.368;2023-03-23T04:47:46;5.97;;;2.60;;
68989;SDS011;56046;47.270;11.368;2023-03-23T04:50:18;5.15;;;2.08;;
68989;SDS011;56046;47.270;11.368;2023-03-23T04:52:43;4.50;;;2.28;;
68989;SDS011;56046;47.270;11.368;2023-03-23T04:55:10;6.97;;;2.20;;
68989;SDS011;56046;47.270;11.368;2023-03-23T04:57:36;6.97;;;2.17;;
68989;SDS011;56046;47.270;11.368;2023-03-23T05:00:02;6.97;;;2.70;;
68989;SDS011;56046;47.270;11.368;2023-03-23T05:02:35;4.93;;;2.10;;
68989;SDS011;56046;47.270;11.368;2023-03-23T05:05:00;5.90;;;2.28;;
68989;SDS011;56046;47.270;11.368;2023-03-23T05:07:25;4.63;;;2.20;;
68989;SDS011;56046;47.270;11.368;2023-03-23T05:09:51;5.90;;;2.40;;
68989;SDS011;56046;47.270;11.368;2023-03-23T05:12:16;5.07;;;2.33;;
68989;SDS011;56046;47.270;11.368;2023-03-23T05:14:42;6.30;;;2.50;;
68989;SDS011;56046;47.270;11.368;2023-03-23T05:17:07;7.57;;;2.67;;
68989;SDS011;56046;47.270;11.368;2023-03-23T05:19:34;4.40;;;2.00;;
68989;SDS011;56046;47.270;11.368;2023-03-23T05:21:59;5.27;;;2.13;;
68989;SDS011;56046;47.270;11.368;2023-03-23T05:24:28;6.65;;;2.58;;
68989;SDS011;56046;47.270;11.368;2023-03-23T05:26:56;7.55;;;2.50;;
68989;SDS011;56046;47.270;11.368;2023-03-23T05:29:21;4.77;;;2.27;;
68989;SDS011;56046;47.270;11.368;2023-03-23T05:31:48;5.88;;;2.33;;
68989;SDS011;56046;47.270;11.368;2023-03-23T05:34:14;5.07;;;2.40;;
68989;SDS011;56046;47.270;11.368;2023-03-23T05:36:41;5.50;;;2.40;;
68989;SDS011;56046;47.270;11.368;2023-03-23T05:39:08;4.88;;;2.25;;
68989;SDS011;56046;47.270;11.368;2023-03-23T05:41:35;4.53;;;2.38;;
68989;SDS011;56046;47.270;11.368;2023-03-23T05:44:00;5.10;;;2.60;;
68989;SDS011;56046;47.270;11.368;2023-03-23T05:46:25;6.87;;;2.70;;
68989;SDS011;56046;47.270;11.368;2023-03-23T05:48:51;5.47;;;2.17;;
68989;SDS011;56046;47.270;11.368;2023-03-23T05:51:17;5.13;;;2.38;;
68989;SDS011;56046;47.270;11.368;2023-03-23T05:53:43;5.80;;;2.55;;
68989;SDS011;56046;47.270;11.368;2023-03-23T05:56:09;5.67;;;2.70;;
68989;SDS011;56046;47.270;11.368;2023-03-23T05:58:34;5.47;;;2.53;;
68989;SDS011;56046;47.270;11.368;2023-03-23T06:00:59;7.13;;;2.87;;
68989;SDS011;56046;47.270;11.368;2023-03-23T06:03:24;5.87;;;2.30;;
68989;SDS011;56046;47.270;11.368;2023-03-23T06:05:50;5.57;;;2.50;;
68989;SDS011;56046;47.270;11.368;2023-03-23T06:08:15;6.63;;;2.67;;
68989;SDS011;56046;47.270;11.368;2023-03-23T06:10:40;5.30;;;2.90;;
68989;SDS011;56046;47.270;11.368;2023-03-23T06:13:05;6.73;;;3.10;;
68989;SDS011;56046;47.270;11.368;2023-03-23T06:15:31;6.50;;;2.90;;
68989;SDS011;56046;47.270;11.368;2023-03-23T06:17:58;5.70;;;3.40;;
68989;SDS011;56046;47.270;11.368;2023-03-23T06:20:23;5.47;;;2.97;;
68989;SDS011;56046;47.270;11.368;2023-03-23T06:22:49;5.88;;;3.00;;
68989;SDS011;56046;47.270;11.368;2023-03-23T06:25:16;5.63;;;3.00;;
68989;SDS011;56046;47.270;11.368;2023-03-23T06:27:41;6.18;;;3.20;;
68989;SDS011;56046;47.270;11.368;2023-03-23T06:30:06;8.70;;;3.27;;
68989;SDS011;56046;47.270;11.368;2023-03-23T06:32:32;6.70;;;2.70;;
68989;SDS011;56046;47.270;11.368;2023-03-23T06:34:57;10.90;;;3.70;;
68989;SDS011;56046;47.270;11.368;2023-03-23T06:37:23;24.38;;;4.20;;
68989;SDS011;56046;47.270;11.368;2023-03-23T06:39:49;5.70;;;2.70;;
68989;SDS011;56046;47.270;11.368;2023-03-23T06:42:14;8.18;;;3.05;;
68989;SDS011;56046;47.270;11.368;2023-03-23T06:44:40;7.57;;;3.30;;
68989;SDS011;56046;47.270;11.368;2023-03-23T06:47:05;12.37;;;3.70;;
68989;SDS011;56046;47.270;11.368;2023-03-23T06:49:30;19.60;;;4.57;;
68989;SDS011;56046;47.270;11.368;2023-03-23T06:51:56;15.48;;;4.82;;
68989;SDS011;56046;47.270;11.368;2023-03-23T06:54:22;15.77;;;4.40;;
68989;SDS011;56046;47.270;11.368;2023-03-23T06:56:48;13.18;;;4.60;;
68989;SDS011;56046;47.270;11.368;2023-03-23T06:59:13;8.53;;;4.37;;
68989;SDS011;56046;47.270;11.368;2023-03-23T07:01:38;11.87;;;4.17;;
68989;SDS011;56046;47.270;11.368;2023-03-23T07:04:04;9.70;;;4.00;;
68989;SDS011;56046;47.270;11.368;2023-03-23T07:06:29;7.73;;;3.60;;
68989;SDS011;56046;47.270;11.368;2023-03-23T07:08:54;9.13;;;4.03;;
68989;SDS011;56046;47.270;11.368;2023-03-23T07:11:20;9.68;;;3.47;;
68989;SDS011;56046;47.270;11.368;2023-03-23T07:13:45;8.43;;;3.37;;
68989;SDS011;56046;47.270;11.368;2023-03-23T07:16:11;6.43;;;3.13;;
68989;SDS011;56046;47.270;11.368;2023-03-23T07:18:36;6.65;;;3.47;;
68989;SDS011;56046;47.270;11.368;2023-03-23T07:21:02;7.17;;;3.33;;
68989;SDS011;56046;47.270;11.368;2023-03-23T07:23:28;9.40;;;3.37;;
68989;SDS011;56046;47.270;11.368;2023-03-23T07:25:54;8.98;;;3.20;;
68989;SDS011;56046;47.270;11.368;2023-03-23T07:28:19;8.20;;;3.23;;
68989;SDS011;56046;47.270;11.368;2023-03-23T07:30:45;7.80;;;3.33;;
68989;SDS011;56046;47.270;11.368;2023-03-23T07:33:10;9.37;;;3.77;;
68989;SDS011;56046;47.270;11.368;2023-03-23T07:35:36;9.18;;;3.28;;
68989;SDS011;56046;47.270;11.368;2023-03-23T07:38:02;6.97;;;3.20;;
68989;SDS011;56046;47.270;11.368;2023-03-23T07:40:28;6.75;;;3.35;;
68989;SDS011;56046;47.270;11.368;2023-03-23T07:42:58;6.63;;;3.30;;
68989;SDS011;56046;47.270;11.368;2023-03-23T07:45:23;7.25;;;3.13;;
68989;SDS011;56046;47.270;11.368;2023-03-23T07:47:49;11.17;;;3.57;;
68989;SDS011;56046;47.270;11.368;2023-03-23T07:50:14;8.07;;;4.07;;
68989;SDS011;56046;47.270;11.368;2023-03-23T07:52:40;9.67;;;3.83;;
68989;SDS011;56046;47.270;11.368;2023-03-23T07:55:06;7.93;;;3.78;;
68989;SDS011;56046;47.270;11.368;2023-03-23T07:57:33;7.70;;;3.80;;
68989;SDS011;56046;47.270;11.368;2023-03-23T07:59:58;7.00;;;3.50;;
68989;SDS011;56046;47.270;11.368;2023-03-23T08:02:24;6.83;;;3.77;;
68989;SDS011;56046;47.270;11.368;2023-03-23T08:04:49;7.60;;;3.80;;
68989;SDS011;56046;47.270;11.368;2023-03-23T08:07:15;11.60;;;4.75;;
68989;SDS011;56046;47.270;11.368;2023-03-23T08:09:42;10.65;;;3.78;;
68989;SDS011;56046;47.270;11.368;2023-03-23T08:12:08;9.70;;;4.18;;
68989;SDS011;56046;47.270;11.368;2023-03-23T08:14:33;7.00;;;3.97;;
68989;SDS011;56046;47.270;11.368;2023-03-23T08:16:59;8.90;;;5.03;;
68989;SDS011;56046;47.270;11.368;2023-03-23T08:19:25;17.05;;;6.47;;
68989;SDS011;56046;47.270;11.368;2023-03-23T08:21:51;10.60;;;4.20;;
68989;SDS011;56046;47.270;11.368;2023-03-23T08:24:16;7.43;;;3.37;;
68989;SDS011;56046;47.270;11.368;2023-03-23T08:26:42;5.80;;;3.20;;
68989;SDS011;56046;47.270;11.368;2023-03-23T08:29:07;8.53;;;3.30;;
68989;SDS011;56046;47.270;11.368;2023-03-23T08:31:33;7.40;;;3.17;;
68989;SDS011;56046;47.270;11.368;2023-03-23T08:33:59;5.70;;;3.30;;
68989;SDS011;56046;47.270;11.368;2023-03-23T08:36:25;6.93;;;3.43;;
68989;SDS011;56046;47.270;11.368;2023-03-23T08:38:50;8.50;;;3.90;;
68989;SDS011;56046;47.270;11.368;2023-03-23T08:41:17;7.87;;;3.63;;
68989;SDS011;56046;47.270;11.368;2023-03-23T08:43:42;8.73;;;3.83;;
68989;SDS011;56046;47.270;11.368;2023-03-23T08:46:08;9.63;;;4.20;;
68989;SDS011;56046;47.270;11.368;2023-03-23T08:48:35;7.32;;;3.90;;
68989;SDS011;56046;47.270;11.368;2023-03-23T08:51:02;7.10;;;3.80;;
68989;SDS011;56046;47.270;11.368;2023-03-23T08:53:27;7.60;;;4.00;;
68989;SDS011;56046;47.270;11.368;2023-03-23T08:55:55;9.65;;;3.90;;
68989;SDS011;56046;47.270;11.368;2023-03-23T08:58:21;9.83;;;3.50;;
68989;SDS011;56046;47.270;11.368;2023-03-23T09:00:47;6.57;;;3.10;;
68989;SDS011;56046;47.270;11.368;2023-03-23T09:03:13;7.67;;;3.73;;
68989;SDS011;56046;47.270;11.368;2023-03-23T09:05:38;7.50;;;3.70;;
68989;SDS011;56046;47.270;11.368;2023-03-23T09:08:08;6.88;;;3.60;;
68989;SDS011;56046;47.270;11.368;2023-03-23T09:10:33;5.97;;;3.70;;
68989;SDS011;56046;47.270;11.368;2023-03-23T09:12:58;6.27;;;3.50;;
68989;SDS011;56046;47.270;11.368;2023-03-23T09:15:24;7.85;;;3.63;;
68989;SDS011;56046;47.270;11.368;2023-03-23T09:17:50;6.87;;;3.47;;
68989;SDS011;56046;47.270;11.368;2023-03-23T09:20:17;6.50;;;4.20;;
68989;SDS011;56046;47.270;11.368;2023-03-23T09:22:44;7.82;;;4.03;;
68989;SDS011;56046;47.270;11.368;2023-03-23T09:25:10;7.20;;;4.20;;
68989;SDS011;56046;47.270;11.368;2023-03-23T09:27:36;6.85;;;3.90;;
68989;SDS011;56046;47.270;11.368;2023-03-23T09:30:04;6.70;;;4.10;;
68989;SDS011;56046;47.270;11.368;2023-03-23T09:32:32;10.10;;;4.50;;
68989;SDS011;56046;47.270;11.368;2023-03-23T09:34:57;8.53;;;4.27;;
68989;SDS011;56046;47.270;11.368;2023-03-23T09:37:23;9.27;;;4.13;;
68989;SDS011;56046;47.270;11.368;2023-03-23T09:39:48;7.17;;;4.50;;
68989;SDS011;56046;47.270;11.368;2023-03-23T09:44:57;9.23;;;3.88;;
68989;SDS011;56046;47.270;11.368;2023-03-23T09:47:30;6.72;;;3.90;;
68989;SDS011;56046;47.270;11.368;2023-03-23T09:50:15;8.98;;;4.25;;
68989;SDS011;56046;47.270;11.368;2023-03-23T09:53:02;8.23;;;4.07;;
68989;SDS011;56046;47.270;11.368;2023-03-23T09:55:30;11.82;;;3.97;;
68989;SDS011;56046;47.270;11.368;2023-03-23T10:00:26;7.67;;;4.67;;
68989;SDS011;56046;47.270;11.368;2023-03-23T10:05:39;7.28;;;3.90;;
68989;SDS011;56046;47.270;11.368;2023-03-23T10:08:15;7.57;;;4.23;;
68989;SDS011;56046;47.270;11.368;2023-03-23T10:16:08;7.28;;;4.47;;
68989;SDS011;56046;47.270;11.368;2023-03-23T10:21:02;8.27;;;4.40;;
68989;SDS011;56046;47.270;11.368;2023-03-23T10:31:01;10.07;;;4.57;;
68989;SDS011;56046;47.270;11.368;2023-03-23T10:38:53;9.00;;;4.60;;
68989;SDS011;56046;47.270;11.368;2023-03-23T10:41:18;8.30;;;4.72;;
68989;SDS011;56046;47.270;11.368;2023-03-23T10:43:44;11.02;;;4.78;;
68989;SDS011;56046;47.270;11.368;2023-03-23T10:48:55;9.70;;;5.28;;
68989;SDS011;56046;47.270;11.368;2023-03-23T10:51:23;9.17;;;4.77;;
68989;SDS011;56046;47.270;11.368;2023-03-23T10:53:56;9.32;;;5.25;;
68989;SDS011;56046;47.270;11.368;2023-03-23T10:56:34;8.88;;;5.43;;
68989;SDS011;56046;47.270;11.368;2023-03-23T10:59:10;9.20;;;5.18;;
68989;SDS011;56046;47.270;11.368;2023-03-23T11:01:36;7.88;;;5.20;;
68989;SDS011;56046;47.270;11.368;2023-03-23T11:04:01;7.83;;;5.07;;
68989;SDS011;56046;47.270;11.368;2023-03-23T11:06:28;9.17;;;5.07;;
68989;SDS011;56046;47.270;11.368;2023-03-23T11:08:55;9.35;;;4.97;;
68989;SDS011;56046;47.270;11.368;2023-03-23T11:11:28;9.50;;;4.95;;
68989;SDS011;56046;47.270;11.368;2023-03-23T11:14:13;8.02;;;5.50;;
68989;SDS011;56046;47.270;11.368;2023-03-23T11:16:42;10.20;;;5.63;;
68989;SDS011;56046;47.270;11.368;2023-03-23T11:19:13;7.13;;;4.95;;
68989;SDS011;56046;47.270;11.368;2023-03-23T11:21:39;8.65;;;5.28;;
68989;SDS011;56046;47.270;11.368;2023-03-23T11:24:04;8.27;;;4.83;;
68989;SDS011;56046;47.270;11.368;2023-03-23T11:26:34;7.72;;;5.13;;
68989;SDS011;56046;47.270;11.368;2023-03-23T11:29:19;8.82;;;5.68;;
68989;SDS011;56046;47.270;11.368;2023-03-23T11:31:46;9.15;;;5.55;;
68989;SDS011;56046;47.270;11.368;2023-03-23T11:34:16;9.87;;;4.80;;
68989;SDS011;56046;47.270;11.368;2023-03-23T11:37:29;7.18;;;4.88;;
68989;SDS011;56046;47.270;11.368;2023-03-23T11:39:33;8.80;;;4.82;;
68989;SDS011;56046;47.270;11.368;2023-03-23T11:41:59;10.23;;;4.75;;
68989;SDS011;56046;47.270;11.368;2023-03-23T11:44:39;8.15;;;5.50;;
68989;SDS011;56046;47.270;11.368;2023-03-23T11:47:26;8.23;;;5.10;;
68989;SDS011;56046;47.270;11.368;2023-03-23T11:57:36;9.57;;;5.28;;
68989;SDS011;56046;47.270;11.368;2023-03-23T12:00:02;8.97;;;5.47;;
68989;SDS011;56046;47.270;11.368;2023-03-23T12:02:42;9.07;;;5.40;;
68989;SDS011;56046;47.270;11.368;2023-03-23T12:08:03;11.83;;;5.87;;
68989;SDS011;56046;47.270;11.368;2023-03-23T12:13:05;8.73;;;5.18;;
68989;SDS011;56046;47.270;11.368;2023-03-23T12:15:38;8.13;;;5.40;;
68989;SDS011;56046;47.270;11.368;2023-03-23T12:18:09;9.65;;;5.30;;
68989;SDS011;56046;47.270;11.368;2023-03-23T12:25:36;12.63;;;5.40;;
68989;SDS011;56046;47.270;11.368;2023-03-23T12:28:26;9.38;;;4.97;;
68989;SDS011;56046;47.270;11.368;2023-03-23T12:41:17;10.73;;;6.07;;
68989;SDS011;56046;47.270;11.368;2023-03-23T12:48:44;10.68;;;6.22;;
68989;SDS011;56046;47.270;11.368;2023-03-23T12:51:17;10.98;;;6.05;;
68989;SDS011;56046;47.270;11.368;2023-03-23T12:58:50;10.83;;;6.00;;
68989;SDS011;56046;47.270;11.368;2023-03-23T13:01:19;9.15;;;6.28;;
68989;SDS011;56046;47.270;11.368;2023-03-23T13:08:58;8.37;;;5.97;;
68989;SDS011;56046;47.270;11.368;2023-03-23T13:11:35;9.15;;;6.18;;
68989;SDS011;56046;47.270;11.368;2023-03-23T13:16:38;12.10;;;7.80;;
68989;SDS011;56046;47.270;11.368;2023-03-23T13:19:25;12.38;;;7.60;;
68989;SDS011;56046;47.270;11.368;2023-03-23T13:24:21;12.07;;;7.77;;
68989;SDS011;56046;47.270;11.368;2023-03-23T13:26:48;16.15;;;9.95;;
68989;SDS011;56046;47.270;11.368;2023-03-23T13:31:40;12.57;;;7.90;;
68989;SDS011;56046;47.270;11.368;2023-03-23T13:34:16;14.13;;;8.32;;
68989;SDS011;56046;47.270;11.368;2023-03-23T13:36:43;16.73;;;9.40;;
68989;SDS011;56046;47.270;11.368;2023-03-23T13:39:23;12.52;;;8.40;;
68989;SDS011;56046;47.270;11.368;2023-03-23T13:42:34;15.93;;;8.60;;
68989;SDS011;56046;47.270;11.368;2023-03-23T13:44:54;14.77;;;8.35;;
68989;SDS011;56046;47.270;11.368;2023-03-23T13:49:58;21.92;;;9.38;;
68989;SDS011;56046;47.270;11.368;2023-03-23T13:57:50;15.65;;;8.60;;
68989;SDS011;56046;47.270;11.368;2023-03-23T14:00:25;15.48;;;9.68;;
68989;SDS011;56046;47.270;11.368;2023-03-23T14:02:58;15.10;;;8.90;;
68989;SDS011;56046;47.270;11.368;2023-03-23T14:07:53;15.30;;;9.17;;
68989;SDS011;56046;47.270;11.368;2023-03-23T14:10:18;16.57;;;8.67;;
68989;SDS011;56046;47.270;11.368;2023-03-23T14:12:44;16.48;;;9.05;;
68989;SDS011;56046;47.270;11.368;2023-03-23T14:15:13;14.90;;;8.87;;
68989;SDS011;56046;47.270;11.368;2023-03-23T14:17:43;17.65;;;10.13;;
68989;SDS011;56046;47.270;11.368;2023-03-23T14:20:21;18.00;;;9.27;;
68989;SDS011;56046;47.270;11.368;2023-03-23T14:22:52;16.58;;;9.93;;
68989;SDS011;56046;47.270;11.368;2023-03-23T14:25:18;17.10;;;9.35;;
68989;SDS011;56046;47.270;11.368;2023-03-23T14:27:45;14.70;;;9.10;;
68989;SDS011;56046;47.270;11.368;2023-03-23T14:30:16;18.35;;;9.48;;
68989;SDS011;56046;47.270;11.368;2023-03-23T14:32:42;17.70;;;10.82;;
68989;SDS011;56046;47.270;11.368;2023-03-23T14:35:30;18.55;;;10.07;;
68989;SDS011;56046;47.270;11.368;2023-03-23T14:37:54;19.53;;;9.43;;
68989;SDS011;56046;47.270;11.368;2023-03-23T14:40:20;18.52;;;10.23;;
68989;SDS011;56046;47.270;11.368;2023-03-23T14:42:46;17.70;;;9.90;;
68989;SDS011;56046;47.270;11.368;2023-03-23T14:45:15;18.47;;;9.73;;
68989;SDS011;56046;47.270;11.368;2023-03-23T14:53:02;19.20;;;11.30;;
68989;SDS011;56046;47.270;11.368;2023-03-23T14:55:30;18.63;;;10.90;;
68989;SDS011;56046;47.270;11.368;2023-03-23T14:57:56;20.25;;;10.48;;
68989;SDS011;56046;47.270;11.368;2023-03-23T15:00:31;18.48;;;9.55;;
68989;SDS011;56046;47.270;11.368;2023-03-23T15:02:58;15.75;;;9.50;;
68989;SDS011;56046;47.270;11.368;2023-03-23T15:05:29;19.20;;;10.10;;
68989;SDS011;56046;47.270;11.368;2023-03-23T15:07:58;18.98;;;10.00;;
68989;SDS011;56046;47.270;11.368;2023-03-23T15:10:25;18.60;;;10.52;;
68989;SDS011;56046;47.270;11.368;2023-03-23T15:12:50;16.77;;;9.90;;
68989;SDS011;56046;47.270;11.368;2023-03-23T15:15:25;20.83;;;11.43;;
68989;SDS011;56046;47.270;11.368;2023-03-23T15:17:51;17.48;;;9.75;;
68989;SDS011;56046;47.270;11.368;2023-03-23T15:23:22;17.63;;;9.88;;
68989;SDS011;56046;47.270;11.368;2023-03-23T15:25:48;17.83;;;10.70;;
68989;SDS011;56046;47.270;11.368;2023-03-23T15:28:31;17.50;;;9.30;;
68989;SDS011;56046;47.270;11.368;2023-03-23T15:31:03;18.13;;;10.50;;
68989;SDS011;56046;47.270;11.368;2023-03-23T15:33:36;22.40;;;10.75;;
68989;SDS011;56046;47.270;11.368;2023-03-23T15:36:05;17.55;;;9.10;;
68989;SDS011;56046;47.270;11.368;2023-03-23T15:38:32;20.40;;;10.32;;
68989;SDS011;56046;47.270;11.368;2023-03-23T15:40:59;19.38;;;9.30;;
68989;SDS011;56046;47.270;11.368;2023-03-23T15:48:18;21.63;;;9.25;;
68989;SDS011;56046;47.270;11.368;2023-03-23T15:50:45;22.60;;;9.20;;
68989;SDS011;56046;47.270;11.368;2023-03-23T15:53:30;19.42;;;9.30;;
68989;SDS011;56046;47.270;11.368;2023-03-23T15:55:57;19.63;;;9.67;;
68989;SDS011;56046;47.270;11.368;2023-03-23T15:58:23;19.63;;;8.82;;
68989;SDS011;56046;47.270;11.368;2023-03-23T16:00:49;20.77;;;9.10;;
68989;SDS011;56046;47.270;11.368;2023-03-23T16:03:25;20.50;;;10.18;;
68989;SDS011;56046;47.270;11.368;2023-03-23T16:05:52;26.70;;;10.50;;
68989;SDS011;56046;47.270;11.368;2023-03-23T16:08:17;19.58;;;9.52;;
68989;SDS011;56046;47.270;11.368;2023-03-23T16:10:42;28.50;;;11.23;;
68989;SDS011;56046;47.270;11.368;2023-03-23T16:13:08;21.13;;;10.73;;
68989;SDS011;56046;47.270;11.368;2023-03-23T16:15:33;23.37;;;11.50;;
68989;SDS011;56046;47.270;11.368;2023-03-23T16:17:58;22.17;;;10.97;;
68989;SDS011;56046;47.270;11.368;2023-03-23T16:20:24;27.30;;;11.53;;
68989;SDS011;56046;47.270;11.368;2023-03-23T16:22:50;24.92;;;11.50;;
68989;SDS011;56046;47.270;11.368;2023-03-23T16:25:15;23.03;;;10.90;;
68989;SDS011;56046;47.270;11.368;2023-03-23T16:27:41;23.35;;;10.93;;
68989;SDS011;56046;47.270;11.368;2023-03-23T16:30:17;22.58;;;11.18;;
68989;SDS011;56046;47.270;11.368;2023-03-23T16:32:42;18.43;;;10.00;;
68989;SDS011;56046;47.270;11.368;2023-03-23T16:35:08;19.93;;;10.53;;
68989;SDS011;56046;47.270;11.368;2023-03-23T16:37:34;22.33;;;10.57;;
68989;SDS011;56046;47.270;11.368;2023-03-23T16:40:00;20.50;;;10.18;;
68989;SDS011;56046;47.270;11.368;2023-03-23T16:42:25;18.17;;;9.73;;